sensor_id;sensor_type;location;lat;lon;timestamp;P1;durP1;ratioP1;P2;durP2;ratioP2
69854;SDS011;57146;48.140;16.304;2022-07-05T00:01:35;6.20;;;1.58;;
69854;SDS011;57146;48.140;16.304;2022-07-05T00:04:02;4.45;;;1.42;;
69854;SDS011;57146;48.140;16.304;2022-07-05T00:06:29;7.35;;;2.35;;
69854;SDS011;57146;48.140;16.304;2022-07-05T00:08:56;2.88;;;1.27;;
69854;SDS011;57146;48.140;16.304;2022-07-05T00:11:23;5.57;;;1.60;;
69854;SDS011;57146;48.140;16.304;2022-07-05T00:13:50;5.28;;;1.77;;
69854;SDS011;57146;48.140;16.304;2022-07-05T00:16:17;4.63;;;1.70;;
69854;SDS011;57146;48.140;16.304;2022-07-05T00:18:44;3.05;;;1.20;;
69854;SDS011;57146;48.140;16.304;2022-07-05T00:21:11;3.60;;;1.40;;
69854;SDS011;57146;48.140;16.304;2022-07-05T00:23:38;3.47;;;1.27;;
69854;SDS011;57146;48.140;16.304;2022-07-05T00:26:05;4.75;;;1.27;;
69854;SDS011;57146;48.140;16.304;2022-07-05T00:28:32;3.97;;;1.20;;
69854;SDS011;57146;48.140;16.304;2022-07-05T00:30:59;3.70;;;1.40;;
69854;SDS011;57146;48.140;16.304;2022-07-05T00:33:26;4.15;;;1.20;;
69854;SDS011;57146;48.140;16.304;2022-07-05T00:35:53;4.38;;;1.45;;
69854;SDS011;57146;48.140;16.304;2022-07-05T00:38:19;3.90;;;1.38;;
69854;SDS011;57146;48.140;16.304;2022-07-05T00:40:46;2.95;;;0.90;;
69854;SDS011;57146;48.140;16.304;2022-07-05T00:43:13;3.33;;;1.10;;
69854;SDS011;57146;48.140;16.304;2022-07-05T00:45:40;3.55;;;1.00;;
69854;SDS011;57146;48.140;16.304;2022-07-05T00:48:07;3.60;;;1.10;;
69854;SDS011;57146;48.140;16.304;2022-07-05T00:50:34;2.72;;;0.88;;
69854;SDS011;57146;48.140;16.304;2022-07-05T00:53:01;3.00;;;1.00;;
69854;SDS011;57146;48.140;16.304;2022-07-05T00:55:28;3.10;;;0.90;;
69854;SDS011;57146;48.140;16.304;2022-07-05T00:57:55;4.05;;;0.88;;
69854;SDS011;57146;48.140;16.304;2022-07-05T01:00:22;3.42;;;0.80;;
69854;SDS011;57146;48.140;16.304;2022-07-05T01:02:50;2.38;;;0.77;;
69854;SDS011;57146;48.140;16.304;2022-07-05T01:05:18;4.18;;;1.00;;
69854;SDS011;57146;48.140;16.304;2022-07-05T01:07:45;2.67;;;0.80;;
69854;SDS011;57146;48.140;16.304;2022-07-05T01:10:12;2.88;;;0.90;;
69854;SDS011;57146;48.140;16.304;2022-07-05T01:12:39;3.40;;;0.75;;
69854;SDS011;57146;48.140;16.304;2022-07-05T01:15:07;3.20;;;0.90;;
69854;SDS011;57146;48.140;16.304;2022-07-05T01:17:35;3.05;;;0.90;;
69854;SDS011;57146;48.140;16.304;2022-07-05T01:20:06;3.28;;;0.73;;
69854;SDS011;57146;48.140;16.304;2022-07-05T01:22:50;2.65;;;0.75;;
69854;SDS011;57146;48.140;16.304;2022-07-05T01:25:22;3.20;;;0.75;;
69854;SDS011;57146;48.140;16.304;2022-07-05T01:28:09;2.50;;;1.05;;
69854;SDS011;57146;48.140;16.304;2022-07-05T01:30:36;3.13;;;0.82;;
69854;SDS011;57146;48.140;16.304;2022-07-05T01:33:06;3.10;;;0.75;;
69854;SDS011;57146;48.140;16.304;2022-07-05T01:35:35;3.55;;;0.73;;
69854;SDS011;57146;48.140;16.304;2022-07-05T01:38:03;2.53;;;0.60;;
69854;SDS011;57146;48.140;16.304;2022-07-05T01:40:30;3.30;;;0.80;;
69854;SDS011;57146;48.140;16.304;2022-07-05T01:42:58;2.92;;;0.70;;
69854;SDS011;57146;48.140;16.304;2022-07-05T01:45:25;2.88;;;0.70;;
69854;SDS011;57146;48.140;16.304;2022-07-05T01:47:53;1.95;;;0.40;;
69854;SDS011;57146;48.140;16.304;2022-07-05T01:50:20;2.83;;;0.80;;
69854;SDS011;57146;48.140;16.304;2022-07-05T01:52:48;2.20;;;0.40;;
69854;SDS011;57146;48.140;16.304;2022-07-05T01:55:17;1.98;;;0.60;;
69854;SDS011;57146;48.140;16.304;2022-07-05T01:57:44;3.22;;;0.50;;
69854;SDS011;57146;48.140;16.304;2022-07-05T02:00:11;2.20;;;0.50;;
69854;SDS011;57146;48.140;16.304;2022-07-05T02:02:40;3.28;;;0.52;;
69854;SDS011;57146;48.140;16.304;2022-07-05T02:05:09;2.70;;;0.52;;
69854;SDS011;57146;48.140;16.304;2022-07-05T02:07:45;2.15;;;0.50;;
69854;SDS011;57146;48.140;16.304;2022-07-05T02:10:15;2.72;;;0.70;;
69854;SDS011;57146;48.140;16.304;2022-07-05T02:12:42;3.70;;;0.77;;
69854;SDS011;57146;48.140;16.304;2022-07-05T02:15:09;3.13;;;0.73;;
69854;SDS011;57146;48.140;16.304;2022-07-05T02:17:37;2.63;;;0.70;;
69854;SDS011;57146;48.140;16.304;2022-07-05T02:20:05;2.25;;;0.70;;
69854;SDS011;57146;48.140;16.304;2022-07-05T02:22:33;3.03;;;0.70;;
69854;SDS011;57146;48.140;16.304;2022-07-05T02:25:00;2.70;;;0.75;;
69854;SDS011;57146;48.140;16.304;2022-07-05T02:27:28;3.08;;;0.70;;
69854;SDS011;57146;48.140;16.304;2022-07-05T02:29:55;3.45;;;1.00;;
69854;SDS011;57146;48.140;16.304;2022-07-05T02:32:33;2.80;;;0.90;;
69854;SDS011;57146;48.140;16.304;2022-07-05T02:35:03;3.08;;;0.80;;
69854;SDS011;57146;48.140;16.304;2022-07-05T02:37:31;3.15;;;0.70;;
69854;SDS011;57146;48.140;16.304;2022-07-05T02:40:00;3.55;;;0.85;;
69854;SDS011;57146;48.140;16.304;2022-07-05T02:42:30;2.50;;;0.70;;
69854;SDS011;57146;48.140;16.304;2022-07-05T02:44:57;3.58;;;0.85;;
69854;SDS011;57146;48.140;16.304;2022-07-05T02:47:24;2.70;;;0.68;;
69854;SDS011;57146;48.140;16.304;2022-07-05T02:49:51;3.00;;;0.40;;
69854;SDS011;57146;48.140;16.304;2022-07-05T02:52:18;3.55;;;0.65;;
69854;SDS011;57146;48.140;16.304;2022-07-05T02:54:46;2.40;;;0.70;;
69854;SDS011;57146;48.140;16.304;2022-07-05T02:57:15;3.05;;;0.52;;
69854;SDS011;57146;48.140;16.304;2022-07-05T02:59:42;2.33;;;0.65;;
69854;SDS011;57146;48.140;16.304;2022-07-05T03:02:10;2.55;;;0.43;;
69854;SDS011;57146;48.140;16.304;2022-07-05T03:04:39;2.90;;;0.52;;
69854;SDS011;57146;48.140;16.304;2022-07-05T03:07:07;2.05;;;0.40;;
69854;SDS011;57146;48.140;16.304;2022-07-05T03:09:33;2.22;;;0.47;;
69854;SDS011;57146;48.140;16.304;2022-07-05T03:12:02;2.00;;;0.60;;
69854;SDS011;57146;48.140;16.304;2022-07-05T03:14:31;2.83;;;0.55;;
69854;SDS011;57146;48.140;16.304;2022-07-05T03:16:59;2.10;;;0.47;;
69854;SDS011;57146;48.140;16.304;2022-07-05T03:19:26;2.33;;;0.57;;
69854;SDS011;57146;48.140;16.304;2022-07-05T03:21:54;2.60;;;0.60;;
69854;SDS011;57146;48.140;16.304;2022-07-05T03:24:21;3.33;;;0.88;;
69854;SDS011;57146;48.140;16.304;2022-07-05T03:26:48;2.92;;;0.60;;
69854;SDS011;57146;48.140;16.304;2022-07-05T03:29:15;2.28;;;0.70;;
69854;SDS011;57146;48.140;16.304;2022-07-05T03:31:43;2.95;;;0.70;;
69854;SDS011;57146;48.140;16.304;2022-07-05T03:34:11;4.32;;;0.75;;
69854;SDS011;57146;48.140;16.304;2022-07-05T03:36:39;3.55;;;0.63;;
69854;SDS011;57146;48.140;16.304;2022-07-05T03:39:11;2.15;;;0.63;;
69854;SDS011;57146;48.140;16.304;2022-07-05T03:41:38;2.83;;;0.80;;
69854;SDS011;57146;48.140;16.304;2022-07-05T03:44:07;5.00;;;1.00;;
69854;SDS011;57146;48.140;16.304;2022-07-05T03:46:35;2.45;;;0.77;;
69854;SDS011;57146;48.140;16.304;2022-07-05T03:49:01;2.30;;;0.70;;
69854;SDS011;57146;48.140;16.304;2022-07-05T03:51:29;2.90;;;0.65;;
69854;SDS011;57146;48.140;16.304;2022-07-05T03:53:57;2.45;;;0.90;;
69854;SDS011;57146;48.140;16.304;2022-07-05T03:56:25;2.35;;;1.00;;
69854;SDS011;57146;48.140;16.304;2022-07-05T03:58:57;3.78;;;1.23;;
69854;SDS011;57146;48.140;16.304;2022-07-05T04:01:25;2.78;;;1.10;;
69854;SDS011;57146;48.140;16.304;2022-07-05T04:03:53;4.53;;;1.40;;
69854;SDS011;57146;48.140;16.304;2022-07-05T04:06:21;3.92;;;1.80;;
69854;SDS011;57146;48.140;16.304;2022-07-05T04:08:50;3.75;;;1.35;;
69854;SDS011;57146;48.140;16.304;2022-07-05T04:11:17;3.25;;;1.15;;
69854;SDS011;57146;48.140;16.304;2022-07-05T04:13:48;4.15;;;1.20;;
69854;SDS011;57146;48.140;16.304;2022-07-05T04:16:15;4.80;;;1.38;;
69854;SDS011;57146;48.140;16.304;2022-07-05T04:18:42;2.90;;;0.88;;
69854;SDS011;57146;48.140;16.304;2022-07-05T04:21:09;2.50;;;0.90;;
69854;SDS011;57146;48.140;16.304;2022-07-05T04:23:36;3.05;;;0.77;;
69854;SDS011;57146;48.140;16.304;2022-07-05T04:26:04;2.35;;;0.88;;
69854;SDS011;57146;48.140;16.304;2022-07-05T04:28:40;2.55;;;0.80;;
69854;SDS011;57146;48.140;16.304;2022-07-05T04:31:10;4.22;;;1.23;;
69854;SDS011;57146;48.140;16.304;2022-07-05T04:33:41;4.03;;;1.00;;
69854;SDS011;57146;48.140;16.304;2022-07-05T04:36:12;2.83;;;0.98;;
69854;SDS011;57146;48.140;16.304;2022-07-05T04:38:39;2.70;;;0.90;;
69854;SDS011;57146;48.140;16.304;2022-07-05T04:41:06;2.80;;;0.80;;
69854;SDS011;57146;48.140;16.304;2022-07-05T04:43:35;2.63;;;0.85;;
69854;SDS011;57146;48.140;16.304;2022-07-05T04:46:05;3.20;;;1.00;;
69854;SDS011;57146;48.140;16.304;2022-07-05T04:48:33;4.60;;;1.00;;
69854;SDS011;57146;48.140;16.304;2022-07-05T04:51:00;2.88;;;0.77;;
69854;SDS011;57146;48.140;16.304;2022-07-05T04:53:30;2.28;;;0.75;;
69854;SDS011;57146;48.140;16.304;2022-07-05T04:55:57;2.35;;;0.80;;
69854;SDS011;57146;48.140;16.304;2022-07-05T04:58:23;2.10;;;0.47;;
69854;SDS011;57146;48.140;16.304;2022-07-05T05:00:50;2.45;;;0.93;;
69854;SDS011;57146;48.140;16.304;2022-07-05T05:03:17;2.20;;;0.73;;
69854;SDS011;57146;48.140;16.304;2022-07-05T05:05:44;3.10;;;0.60;;
69854;SDS011;57146;48.140;16.304;2022-07-05T05:08:11;2.67;;;0.57;;
69854;SDS011;57146;48.140;16.304;2022-07-05T05:10:39;3.03;;;0.80;;
69854;SDS011;57146;48.140;16.304;2022-07-05T05:13:06;4.07;;;0.90;;
69854;SDS011;57146;48.140;16.304;2022-07-05T05:15:33;2.58;;;0.85;;
69854;SDS011;57146;48.140;16.304;2022-07-05T05:18:00;3.55;;;0.80;;
69854;SDS011;57146;48.140;16.304;2022-07-05T05:20:27;2.65;;;0.75;;
69854;SDS011;57146;48.140;16.304;2022-07-05T05:22:53;2.85;;;0.80;;
69854;SDS011;57146;48.140;16.304;2022-07-05T05:25:20;3.35;;;0.85;;
69854;SDS011;57146;48.140;16.304;2022-07-05T05:27:48;2.40;;;0.60;;
69854;SDS011;57146;48.140;16.304;2022-07-05T05:30:16;2.53;;;0.60;;
69854;SDS011;57146;48.140;16.304;2022-07-05T05:32:44;2.85;;;0.80;;
69854;SDS011;57146;48.140;16.304;2022-07-05T05:35:11;2.15;;;0.40;;
69854;SDS011;57146;48.140;16.304;2022-07-05T05:37:54;3.45;;;0.50;;
69854;SDS011;57146;48.140;16.304;2022-07-05T05:40:22;2.42;;;0.50;;
69854;SDS011;57146;48.140;16.304;2022-07-05T05:42:51;1.83;;;0.47;;
69854;SDS011;57146;48.140;16.304;2022-07-05T05:45:19;3.40;;;0.60;;
69854;SDS011;57146;48.140;16.304;2022-07-05T05:47:49;3.05;;;0.63;;
69854;SDS011;57146;48.140;16.304;2022-07-05T05:50:22;2.55;;;0.70;;
69854;SDS011;57146;48.140;16.304;2022-07-05T05:52:51;2.33;;;0.70;;
69854;SDS011;57146;48.140;16.304;2022-07-05T05:55:19;5.30;;;0.88;;
69854;SDS011;57146;48.140;16.304;2022-07-05T05:57:47;3.35;;;0.90;;
69854;SDS011;57146;48.140;16.304;2022-07-05T06:00:14;4.07;;;0.70;;
69854;SDS011;57146;48.140;16.304;2022-07-05T06:02:43;3.47;;;0.70;;
69854;SDS011;57146;48.140;16.304;2022-07-05T06:05:11;4.25;;;0.80;;
69854;SDS011;57146;48.140;16.304;2022-07-05T06:10:26;2.50;;;0.73;;
69854;SDS011;57146;48.140;16.304;2022-07-05T06:12:56;3.60;;;0.70;;
69854;SDS011;57146;48.140;16.304;2022-07-05T06:15:23;2.30;;;0.82;;
69854;SDS011;57146;48.140;16.304;2022-07-05T06:17:50;2.40;;;0.80;;
69854;SDS011;57146;48.140;16.304;2022-07-05T06:20:22;8.45;;;0.80;;
69854;SDS011;57146;48.140;16.304;2022-07-05T06:22:51;2.72;;;0.60;;
69854;SDS011;57146;48.140;16.304;2022-07-05T06:25:19;3.17;;;0.60;;
69854;SDS011;57146;48.140;16.304;2022-07-05T06:28:08;3.05;;;0.75;;
69854;SDS011;57146;48.140;16.304;2022-07-05T06:30:36;5.20;;;0.70;;
69854;SDS011;57146;48.140;16.304;2022-07-05T06:33:03;2.00;;;0.40;;
69854;SDS011;57146;48.140;16.304;2022-07-05T06:35:31;2.42;;;0.40;;
69854;SDS011;57146;48.140;16.304;2022-07-05T06:38:00;4.03;;;0.60;;
69854;SDS011;57146;48.140;16.304;2022-07-05T06:40:38;2.63;;;0.40;;
69854;SDS011;57146;48.140;16.304;2022-07-05T06:43:07;2.53;;;0.50;;
69854;SDS011;57146;48.140;16.304;2022-07-05T06:45:39;2.67;;;0.40;;
69854;SDS011;57146;48.140;16.304;2022-07-05T06:48:07;2.90;;;0.40;;
69854;SDS011;57146;48.140;16.304;2022-07-05T06:50:37;1.95;;;0.35;;
69854;SDS011;57146;48.140;16.304;2022-07-05T06:53:06;1.90;;;0.32;;
69854;SDS011;57146;48.140;16.304;2022-07-05T06:55:33;2.53;;;0.30;;
69854;SDS011;57146;48.140;16.304;2022-07-05T06:58:02;1.92;;;0.30;;
69854;SDS011;57146;48.140;16.304;2022-07-05T07:00:39;1.77;;;0.40;;
69854;SDS011;57146;48.140;16.304;2022-07-05T07:03:29;3.17;;;0.40;;
69854;SDS011;57146;48.140;16.304;2022-07-05T07:06:16;1.63;;;0.28;;
69854;SDS011;57146;48.140;16.304;2022-07-05T07:08:43;2.25;;;0.30;;
69854;SDS011;57146;48.140;16.304;2022-07-05T07:11:10;2.28;;;0.47;;
69854;SDS011;57146;48.140;16.304;2022-07-05T07:13:37;1.63;;;0.20;;
69854;SDS011;57146;48.140;16.304;2022-07-05T07:16:04;1.92;;;0.20;;
69854;SDS011;57146;48.140;16.304;2022-07-05T07:18:31;2.17;;;0.20;;
69854;SDS011;57146;48.140;16.304;2022-07-05T07:21:08;1.70;;;0.20;;
69854;SDS011;57146;48.140;16.304;2022-07-05T07:23:38;1.88;;;0.20;;
69854;SDS011;57146;48.140;16.304;2022-07-05T07:26:04;2.22;;;0.15;;
69854;SDS011;57146;48.140;16.304;2022-07-05T07:28:31;7.20;;;0.60;;
69854;SDS011;57146;48.140;16.304;2022-07-05T07:30:58;2.05;;;0.20;;
69854;SDS011;57146;48.140;16.304;2022-07-05T07:33:25;2.00;;;0.10;;
69854;SDS011;57146;48.140;16.304;2022-07-05T07:36:10;1.40;;;0.10;;
69854;SDS011;57146;48.140;16.304;2022-07-05T07:38:41;1.90;;;0.10;;
69854;SDS011;57146;48.140;16.304;2022-07-05T07:41:08;2.60;;;0.10;;
69854;SDS011;57146;48.140;16.304;2022-07-05T07:43:35;1.85;;;0.20;;
69854;SDS011;57146;48.140;16.304;2022-07-05T07:46:02;1.00;;;0.05;;
69854;SDS011;57146;48.140;16.304;2022-07-05T07:48:29;1.50;;;0.10;;
69854;SDS011;57146;48.140;16.304;2022-07-05T07:50:56;0.90;;;0.00;;
69854;SDS011;57146;48.140;16.304;2022-07-05T07:53:23;0.70;;;0.00;;
69854;SDS011;57146;48.140;16.304;2022-07-05T07:55:51;1.50;;;0.00;;
69854;SDS011;57146;48.140;16.304;2022-07-05T07:58:17;1.05;;;0.05;;
69854;SDS011;57146;48.140;16.304;2022-07-05T08:00:44;4.32;;;0.20;;
69854;SDS011;57146;48.140;16.304;2022-07-05T08:03:11;1.00;;;0.00;;
69854;SDS011;57146;48.140;16.304;2022-07-05T08:05:38;2.50;;;0.05;;
69854;SDS011;57146;48.140;16.304;2022-07-05T08:08:05;0.57;;;0.00;;
69854;SDS011;57146;48.140;16.304;2022-07-05T08:10:32;1.35;;;0.00;;
69854;SDS011;57146;48.140;16.304;2022-07-05T08:12:59;2.90;;;0.00;;
69854;SDS011;57146;48.140;16.304;2022-07-05T08:15:26;0.38;;;0.00;;
69854;SDS011;57146;48.140;16.304;2022-07-05T08:17:53;0.95;;;0.00;;
69854;SDS011;57146;48.140;16.304;2022-07-05T08:20:19;1.88;;;0.00;;
69854;SDS011;57146;48.140;16.304;2022-07-05T08:22:46;13.77;;;0.30;;
69854;SDS011;57146;48.140;16.304;2022-07-05T08:25:13;1.13;;;0.00;;
69854;SDS011;57146;48.140;16.304;2022-07-05T08:27:41;0.77;;;0.00;;
69854;SDS011;57146;48.140;16.304;2022-07-05T08:30:08;0.32;;;0.00;;
69854;SDS011;57146;48.140;16.304;2022-07-05T08:32:35;1.08;;;0.00;;
69854;SDS011;57146;48.140;16.304;2022-07-05T08:35:02;1.02;;;0.00;;
69854;SDS011;57146;48.140;16.304;2022-07-05T08:37:29;0.70;;;0.00;;
69854;SDS011;57146;48.140;16.304;2022-07-05T08:39:56;0.70;;;0.00;;
69854;SDS011;57146;48.140;16.304;2022-07-05T08:42:23;1.00;;;0.00;;
69854;SDS011;57146;48.140;16.304;2022-07-05T08:44:50;0.80;;;0.00;;
69854;SDS011;57146;48.140;16.304;2022-07-05T08:47:17;3.13;;;0.10;;
69854;SDS011;57146;48.140;16.304;2022-07-05T08:49:46;2.05;;;0.10;;
69854;SDS011;57146;48.140;16.304;2022-07-05T08:52:14;1.40;;;0.10;;
69854;SDS011;57146;48.140;16.304;2022-07-05T08:54:41;2.30;;;0.00;;
69854;SDS011;57146;48.140;16.304;2022-07-05T08:57:09;2.28;;;0.00;;
69854;SDS011;57146;48.140;16.304;2022-07-05T08:59:38;3.20;;;0.10;;
69854;SDS011;57146;48.140;16.304;2022-07-05T09:02:05;3.22;;;0.10;;
69854;SDS011;57146;48.140;16.304;2022-07-05T09:04:41;1.15;;;0.10;;
69854;SDS011;57146;48.140;16.304;2022-07-05T09:07:10;1.55;;;0.00;;
69854;SDS011;57146;48.140;16.304;2022-07-05T09:09:41;1.20;;;0.00;;
69854;SDS011;57146;48.140;16.304;2022-07-05T09:12:08;3.33;;;0.00;;
69854;SDS011;57146;48.140;16.304;2022-07-05T09:14:47;1.10;;;0.00;;
69854;SDS011;57146;48.140;16.304;2022-07-05T09:17:14;1.60;;;0.00;;
69854;SDS011;57146;48.140;16.304;2022-07-05T09:19:41;1.40;;;0.08;;
69854;SDS011;57146;48.140;16.304;2022-07-05T09:22:08;2.30;;;0.03;;
69854;SDS011;57146;48.140;16.304;2022-07-05T09:24:45;1.55;;;0.10;;
69854;SDS011;57146;48.140;16.304;2022-07-05T09:27:13;1.88;;;0.10;;
69854;SDS011;57146;48.140;16.304;2022-07-05T09:29:53;1.27;;;0.00;;
69854;SDS011;57146;48.140;16.304;2022-07-05T09:32:28;2.25;;;0.20;;
69854;SDS011;57146;48.140;16.304;2022-07-05T09:34:53;1.30;;;0.08;;
69854;SDS011;57146;48.140;16.304;2022-07-05T09:37:20;1.77;;;0.10;;
69854;SDS011;57146;48.140;16.304;2022-07-05T09:39:47;1.13;;;0.00;;
69854;SDS011;57146;48.140;16.304;2022-07-05T09:44:42;3.58;;;0.10;;
69854;SDS011;57146;48.140;16.304;2022-07-05T09:47:12;1.67;;;0.10;;
69854;SDS011;57146;48.140;16.304;2022-07-05T09:49:44;1.70;;;0.10;;
69854;SDS011;57146;48.140;16.304;2022-07-05T09:52:33;1.97;;;0.10;;
69854;SDS011;57146;48.140;16.304;2022-07-05T09:55:06;2.67;;;0.20;;
69854;SDS011;57146;48.140;16.304;2022-07-05T09:57:38;2.30;;;0.10;;
69854;SDS011;57146;48.140;16.304;2022-07-05T10:00:11;3.90;;;0.30;;
69854;SDS011;57146;48.140;16.304;2022-07-05T10:02:44;2.00;;;0.10;;
69854;SDS011;57146;48.140;16.304;2022-07-05T10:05:22;2.07;;;0.10;;
69854;SDS011;57146;48.140;16.304;2022-07-05T10:07:51;2.08;;;0.20;;
69854;SDS011;57146;48.140;16.304;2022-07-05T10:10:24;1.30;;;0.10;;
69854;SDS011;57146;48.140;16.304;2022-07-05T10:12:56;3.42;;;0.20;;
69854;SDS011;57146;48.140;16.304;2022-07-05T10:15:26;2.30;;;0.20;;
69854;SDS011;57146;48.140;16.304;2022-07-05T10:18:05;2.17;;;0.20;;
69854;SDS011;57146;48.140;16.304;2022-07-05T10:20:42;2.03;;;0.20;;
69854;SDS011;57146;48.140;16.304;2022-07-05T10:23:12;1.73;;;0.20;;
69854;SDS011;57146;48.140;16.304;2022-07-05T10:25:45;2.13;;;0.10;;
69854;SDS011;57146;48.140;16.304;2022-07-05T10:28:14;2.13;;;0.25;;
69854;SDS011;57146;48.140;16.304;2022-07-05T10:30:45;2.40;;;0.20;;
69854;SDS011;57146;48.140;16.304;2022-07-05T10:33:13;1.98;;;0.38;;
69854;SDS011;57146;48.140;16.304;2022-07-05T10:35:44;2.60;;;0.30;;
69854;SDS011;57146;48.140;16.304;2022-07-05T10:38:11;2.85;;;0.40;;
69854;SDS011;57146;48.140;16.304;2022-07-05T10:40:40;2.05;;;0.60;;
69854;SDS011;57146;48.140;16.304;2022-07-05T10:43:10;3.67;;;0.80;;
69854;SDS011;57146;48.140;16.304;2022-07-05T10:45:41;2.45;;;0.60;;
69854;SDS011;57146;48.140;16.304;2022-07-05T10:48:16;2.50;;;0.60;;
69854;SDS011;57146;48.140;16.304;2022-07-05T10:53:17;3.33;;;0.70;;
69854;SDS011;57146;48.140;16.304;2022-07-05T10:55:52;2.50;;;0.70;;
69854;SDS011;57146;48.140;16.304;2022-07-05T10:58:21;3.33;;;0.70;;
69854;SDS011;57146;48.140;16.304;2022-07-05T11:03:41;2.10;;;0.70;;
69854;SDS011;57146;48.140;16.304;2022-07-05T11:06:20;3.97;;;1.08;;
69854;SDS011;57146;48.140;16.304;2022-07-05T11:11:33;2.20;;;0.80;;
69854;SDS011;57146;48.140;16.304;2022-07-05T11:16:48;2.72;;;1.00;;
69854;SDS011;57146;48.140;16.304;2022-07-05T11:22:24;2.60;;;1.07;;
69854;SDS011;57146;48.140;16.304;2022-07-05T11:24:51;3.78;;;1.48;;
69854;SDS011;57146;48.140;16.304;2022-07-05T11:27:19;3.42;;;1.30;;
69854;SDS011;57146;48.140;16.304;2022-07-05T11:29:47;3.53;;;1.50;;
69854;SDS011;57146;48.140;16.304;2022-07-05T11:35:13;3.50;;;1.27;;
69854;SDS011;57146;48.140;16.304;2022-07-05T11:37:58;3.10;;;1.42;;
69854;SDS011;57146;48.140;16.304;2022-07-05T11:40:48;4.10;;;1.45;;
69854;SDS011;57146;48.140;16.304;2022-07-05T11:43:27;3.05;;;1.35;;
69854;SDS011;57146;48.140;16.304;2022-07-05T11:45:56;2.30;;;1.00;;
69854;SDS011;57146;48.140;16.304;2022-07-05T11:48:29;2.83;;;1.20;;
69854;SDS011;57146;48.140;16.304;2022-07-05T11:50:56;2.80;;;1.60;;
69854;SDS011;57146;48.140;16.304;2022-07-05T11:53:27;2.90;;;1.40;;
69854;SDS011;57146;48.140;16.304;2022-07-05T11:56:15;3.17;;;1.48;;
69854;SDS011;57146;48.140;16.304;2022-07-05T11:58:42;3.08;;;1.40;;
69854;SDS011;57146;48.140;16.304;2022-07-05T12:01:09;3.93;;;1.50;;
69854;SDS011;57146;48.140;16.304;2022-07-05T12:03:35;3.45;;;1.45;;
69854;SDS011;57146;48.140;16.304;2022-07-05T12:06:14;2.75;;;1.35;;
69854;SDS011;57146;48.140;16.304;2022-07-05T12:08:41;3.30;;;1.55;;
69854;SDS011;57146;48.140;16.304;2022-07-05T12:11:11;5.10;;;1.85;;
69854;SDS011;57146;48.140;16.304;2022-07-05T12:13:46;3.73;;;1.67;;
69854;SDS011;57146;48.140;16.304;2022-07-05T12:16:14;3.10;;;1.80;;
69854;SDS011;57146;48.140;16.304;2022-07-05T12:18:54;4.05;;;2.05;;
69854;SDS011;57146;48.140;16.304;2022-07-05T12:21:24;3.33;;;2.03;;
69854;SDS011;57146;48.140;16.304;2022-07-05T12:23:51;4.43;;;2.28;;
69854;SDS011;57146;48.140;16.304;2022-07-05T12:26:19;3.40;;;1.70;;
69854;SDS011;57146;48.140;16.304;2022-07-05T12:28:46;5.30;;;2.60;;
69854;SDS011;57146;48.140;16.304;2022-07-05T12:31:14;3.13;;;1.70;;
69854;SDS011;57146;48.140;16.304;2022-07-05T12:33:46;3.42;;;1.55;;
69854;SDS011;57146;48.140;16.304;2022-07-05T12:36:16;3.20;;;1.55;;
69854;SDS011;57146;48.140;16.304;2022-07-05T12:38:44;3.67;;;1.63;;
69854;SDS011;57146;48.140;16.304;2022-07-05T12:41:12;5.28;;;2.05;;
69854;SDS011;57146;48.140;16.304;2022-07-05T12:43:49;3.15;;;1.58;;
69854;SDS011;57146;48.140;16.304;2022-07-05T12:46:18;3.05;;;1.60;;
69854;SDS011;57146;48.140;16.304;2022-07-05T12:48:50;3.42;;;1.75;;
69854;SDS011;57146;48.140;16.304;2022-07-05T12:51:31;4.17;;;1.53;;
69854;SDS011;57146;48.140;16.304;2022-07-05T12:54:03;3.03;;;1.50;;
69854;SDS011;57146;48.140;16.304;2022-07-05T12:56:33;2.92;;;1.55;;
69854;SDS011;57146;48.140;16.304;2022-07-05T12:59:01;3.05;;;1.60;;
69854;SDS011;57146;48.140;16.304;2022-07-05T13:01:30;4.07;;;1.60;;
69854;SDS011;57146;48.140;16.304;2022-07-05T13:09:37;3.75;;;1.70;;
69854;SDS011;57146;48.140;16.304;2022-07-05T13:12:11;2.90;;;1.50;;
69854;SDS011;57146;48.140;16.304;2022-07-05T13:14:46;3.55;;;1.50;;
69854;SDS011;57146;48.140;16.304;2022-07-05T13:17:17;4.03;;;1.70;;
69854;SDS011;57146;48.140;16.304;2022-07-05T13:19:49;4.18;;;1.50;;
69854;SDS011;57146;48.140;16.304;2022-07-05T13:22:17;2.92;;;1.50;;
69854;SDS011;57146;48.140;16.304;2022-07-05T13:24:45;3.08;;;1.40;;
69854;SDS011;57146;48.140;16.304;2022-07-05T13:27:12;3.33;;;1.50;;
69854;SDS011;57146;48.140;16.304;2022-07-05T13:29:40;3.60;;;1.70;;
69854;SDS011;57146;48.140;16.304;2022-07-05T13:32:07;3.42;;;1.70;;
69854;SDS011;57146;48.140;16.304;2022-07-05T13:34:34;2.55;;;1.40;;
69854;SDS011;57146;48.140;16.304;2022-07-05T13:37:01;2.55;;;1.65;;
69854;SDS011;57146;48.140;16.304;2022-07-05T13:39:28;3.58;;;1.70;;
69854;SDS011;57146;48.140;16.304;2022-07-05T13:41:56;2.80;;;1.70;;
69854;SDS011;57146;48.140;16.304;2022-07-05T13:44:23;4.63;;;1.90;;
69854;SDS011;57146;48.140;16.304;2022-07-05T13:46:51;4.13;;;1.75;;
69854;SDS011;57146;48.140;16.304;2022-07-05T13:49:18;3.25;;;1.70;;
69854;SDS011;57146;48.140;16.304;2022-07-05T13:51:45;4.50;;;1.90;;
69854;SDS011;57146;48.140;16.304;2022-07-05T13:54:11;3.23;;;1.77;;
69854;SDS011;57146;48.140;16.304;2022-07-05T13:56:38;4.05;;;2.03;;
69854;SDS011;57146;48.140;16.304;2022-07-05T13:59:05;3.40;;;1.90;;
69854;SDS011;57146;48.140;16.304;2022-07-05T14:01:32;3.67;;;1.88;;
69854;SDS011;57146;48.140;16.304;2022-07-05T14:04:00;3.10;;;1.70;;
69854;SDS011;57146;48.140;16.304;2022-07-05T14:06:28;4.43;;;1.93;;
69854;SDS011;57146;48.140;16.304;2022-07-05T14:08:56;3.47;;;1.63;;
69854;SDS011;57146;48.140;16.304;2022-07-05T14:11:24;3.13;;;1.92;;
69854;SDS011;57146;48.140;16.304;2022-07-05T14:13:51;3.58;;;1.77;;
69854;SDS011;57146;48.140;16.304;2022-07-05T14:16:18;3.65;;;1.88;;
69854;SDS011;57146;48.140;16.304;2022-07-05T14:18:45;3.97;;;2.00;;
69854;SDS011;57146;48.140;16.304;2022-07-05T14:21:12;3.15;;;1.80;;
69854;SDS011;57146;48.140;16.304;2022-07-05T14:23:38;3.58;;;1.85;;
69854;SDS011;57146;48.140;16.304;2022-07-05T14:26:05;3.78;;;1.70;;
69854;SDS011;57146;48.140;16.304;2022-07-05T14:28:32;3.63;;;1.80;;
69854;SDS011;57146;48.140;16.304;2022-07-05T14:30:59;4.23;;;1.80;;
69854;SDS011;57146;48.140;16.304;2022-07-05T14:33:26;4.38;;;2.20;;
69854;SDS011;57146;48.140;16.304;2022-07-05T14:35:53;3.13;;;1.80;;
69854;SDS011;57146;48.140;16.304;2022-07-05T14:38:19;3.38;;;1.98;;
69854;SDS011;57146;48.140;16.304;2022-07-05T14:40:46;2.80;;;1.77;;
69854;SDS011;57146;48.140;16.304;2022-07-05T14:43:13;4.00;;;1.93;;
69854;SDS011;57146;48.140;16.304;2022-07-05T14:45:41;2.70;;;1.60;;
69854;SDS011;57146;48.140;16.304;2022-07-05T14:48:07;3.00;;;1.60;;
69854;SDS011;57146;48.140;16.304;2022-07-05T14:50:34;3.60;;;1.75;;
69854;SDS011;57146;48.140;16.304;2022-07-05T14:53:01;2.80;;;1.70;;
69854;SDS011;57146;48.140;16.304;2022-07-05T14:55:28;3.53;;;1.80;;
69854;SDS011;57146;48.140;16.304;2022-07-05T14:57:55;3.60;;;2.10;;
69854;SDS011;57146;48.140;16.304;2022-07-05T15:00:21;3.83;;;1.80;;
69854;SDS011;57146;48.140;16.304;2022-07-05T15:02:48;3.45;;;1.85;;
69854;SDS011;57146;48.140;16.304;2022-07-05T15:05:21;3.60;;;1.92;;
69854;SDS011;57146;48.140;16.304;2022-07-05T15:07:48;3.50;;;1.83;;
69854;SDS011;57146;48.140;16.304;2022-07-05T15:10:14;4.05;;;1.92;;
69854;SDS011;57146;48.140;16.304;2022-07-05T15:12:41;2.75;;;1.80;;